sensor_id;sensor_type;location;lat;lon;timestamp;P1;durP1;ratioP1;P2;durP2;ratioP2
38591;SDS011;24356;48.460;11.450;2022-09-09T00:05:09;3.28;;;1.30;;
38591;SDS011;24356;48.460;11.450;2022-09-09T00:07:47;2.53;;;1.42;;
38591;SDS011;24356;48.460;11.450;2022-09-09T00:10:27;2.75;;;1.10;;
38591;SDS011;24356;48.460;11.450;2022-09-09T00:22:29;2.30;;;1.40;;
38591;SDS011;24356;48.460;11.450;2022-09-09T00:24:45;2.95;;;1.58;;
38591;SDS011;24356;48.460;11.450;2022-09-09T00:32:14;3.20;;;1.40;;
38591;SDS011;24356;48.460;11.450;2022-09-09T00:35:05;2.05;;;1.30;;
38591;SDS011;24356;48.460;11.450;2022-09-09T00:37:41;2.50;;;1.40;;
38591;SDS011;24356;48.460;11.450;2022-09-09T00:40:16;4.35;;;1.60;;
38591;SDS011;24356;48.460;11.450;2022-09-09T00:48:23;2.17;;;1.02;;
38591;SDS011;24356;48.460;11.450;2022-09-09T00:51:03;2.42;;;1.38;;
38591;SDS011;24356;48.460;11.450;2022-09-09T00:56:37;2.63;;;1.27;;
38591;SDS011;24356;48.460;11.450;2022-09-09T01:01:35;1.85;;;1.30;;
38591;SDS011;24356;48.460;11.450;2022-09-09T01:04:04;2.22;;;1.52;;
38591;SDS011;24356;48.460;11.450;2022-09-09T01:06:41;1.98;;;1.50;;
38591;SDS011;24356;48.460;11.450;2022-09-09T01:11:37;1.95;;;1.30;;
38591;SDS011;24356;48.460;11.450;2022-09-09T01:14:16;3.20;;;1.23;;
38591;SDS011;24356;48.460;11.450;2022-09-09T01:27:37;2.78;;;1.52;;
38591;SDS011;24356;48.460;11.450;2022-09-09T01:30:08;2.13;;;1.30;;
38591;SDS011;24356;48.460;11.450;2022-09-09T01:35:37;2.75;;;1.50;;
38591;SDS011;24356;48.460;11.450;2022-09-09T01:38:02;1.63;;;1.40;;
38591;SDS011;24356;48.460;11.450;2022-09-09T01:40:29;3.83;;;1.80;;
38591;SDS011;24356;48.460;11.450;2022-09-09T01:42:55;4.15;;;1.50;;
38591;SDS011;24356;48.460;11.450;2022-09-09T01:45:21;3.17;;;1.83;;
38591;SDS011;24356;48.460;11.450;2022-09-09T01:47:47;2.72;;;1.60;;
38591;SDS011;24356;48.460;11.450;2022-09-09T01:50:14;4.20;;;1.58;;
38591;SDS011;24356;48.460;11.450;2022-09-09T01:52:41;2.22;;;1.20;;
38591;SDS011;24356;48.460;11.450;2022-09-09T01:55:08;2.75;;;1.45;;
38591;SDS011;24356;48.460;11.450;2022-09-09T01:58:01;3.25;;;1.67;;
38591;SDS011;24356;48.460;11.450;2022-09-09T02:00:43;1.67;;;1.35;;
38591;SDS011;24356;48.460;11.450;2022-09-09T02:06:06;5.85;;;1.63;;
38591;SDS011;24356;48.460;11.450;2022-09-09T02:08:42;1.70;;;1.45;;
38591;SDS011;24356;48.460;11.450;2022-09-09T02:11:13;2.80;;;1.50;;
38591;SDS011;24356;48.460;11.450;2022-09-09T02:13:44;1.48;;;1.13;;
38591;SDS011;24356;48.460;11.450;2022-09-09T02:18:51;5.95;;;1.30;;
38591;SDS011;24356;48.460;11.450;2022-09-09T02:21:18;3.65;;;1.30;;
38591;SDS011;24356;48.460;11.450;2022-09-09T02:23:44;3.88;;;1.70;;
38591;SDS011;24356;48.460;11.450;2022-09-09T02:26:14;2.20;;;1.63;;
38591;SDS011;24356;48.460;11.450;2022-09-09T02:28:45;4.25;;;1.60;;
38591;SDS011;24356;48.460;11.450;2022-09-09T02:31:14;3.22;;;1.80;;
38591;SDS011;24356;48.460;11.450;2022-09-09T02:33:45;2.58;;;1.45;;
38591;SDS011;24356;48.460;11.450;2022-09-09T02:36:16;3.90;;;1.50;;
38591;SDS011;24356;48.460;11.450;2022-09-09T02:38:45;2.20;;;1.40;;
38591;SDS011;24356;48.460;11.450;2022-09-09T02:41:15;6.03;;;1.48;;
38591;SDS011;24356;48.460;11.450;2022-09-09T02:43:43;4.35;;;1.48;;
38591;SDS011;24356;48.460;11.450;2022-09-09T02:46:16;1.73;;;1.40;;
38591;SDS011;24356;48.460;11.450;2022-09-09T02:48:58;1.50;;;1.40;;
38591;SDS011;24356;48.460;11.450;2022-09-09T02:54:27;3.33;;;1.50;;
38591;SDS011;24356;48.460;11.450;2022-09-09T02:56:56;3.35;;;1.50;;
38591;SDS011;24356;48.460;11.450;2022-09-09T02:59:28;2.42;;;1.55;;
38591;SDS011;24356;48.460;11.450;2022-09-09T03:01:57;2.28;;;1.48;;
38591;SDS011;24356;48.460;11.450;2022-09-09T03:04:22;1.90;;;1.50;;
38591;SDS011;24356;48.460;11.450;2022-09-09T03:06:49;4.10;;;1.80;;
38591;SDS011;24356;48.460;11.450;2022-09-09T03:09:15;1.42;;;1.33;;
38591;SDS011;24356;48.460;11.450;2022-09-09T03:11:41;3.63;;;1.55;;
38591;SDS011;24356;48.460;11.450;2022-09-09T03:14:06;1.80;;;1.30;;
38591;SDS011;24356;48.460;11.450;2022-09-09T03:16:34;2.80;;;1.42;;
38591;SDS011;24356;48.460;11.450;2022-09-09T03:19:00;3.40;;;1.55;;
38591;SDS011;24356;48.460;11.450;2022-09-09T03:21:26;4.30;;;1.50;;
38591;SDS011;24356;48.460;11.450;2022-09-09T03:23:52;4.28;;;1.55;;
38591;SDS011;24356;48.460;11.450;2022-09-09T03:26:17;2.78;;;1.40;;
38591;SDS011;24356;48.460;11.450;2022-09-09T03:28:43;2.28;;;1.33;;
38591;SDS011;24356;48.460;11.450;2022-09-09T03:31:09;1.70;;;1.40;;
38591;SDS011;24356;48.460;11.450;2022-09-09T03:33:36;2.35;;;1.70;;
38591;SDS011;24356;48.460;11.450;2022-09-09T03:36:02;5.60;;;2.05;;
38591;SDS011;24356;48.460;11.450;2022-09-09T03:38:29;2.42;;;1.88;;
38591;SDS011;24356;48.460;11.450;2022-09-09T03:40:56;4.60;;;1.73;;
38591;SDS011;24356;48.460;11.450;2022-09-09T03:43:23;2.95;;;1.60;;
38591;SDS011;24356;48.460;11.450;2022-09-09T03:45:50;1.63;;;1.27;;
38591;SDS011;24356;48.460;11.450;2022-09-09T03:48:16;2.85;;;1.77;;
38591;SDS011;24356;48.460;11.450;2022-09-09T03:50:44;1.60;;;1.50;;
38591;SDS011;24356;48.460;11.450;2022-09-09T03:53:13;4.10;;;1.63;;
38591;SDS011;24356;48.460;11.450;2022-09-09T03:55:47;2.45;;;1.52;;
38591;SDS011;24356;48.460;11.450;2022-09-09T04:06:07;1.70;;;1.60;;
38591;SDS011;24356;48.460;11.450;2022-09-09T04:08:58;3.50;;;1.23;;
38591;SDS011;24356;48.460;11.450;2022-09-09T04:12:03;2.83;;;1.67;;
38591;SDS011;24356;48.460;11.450;2022-09-09T04:18:36;4.40;;;1.88;;
38591;SDS011;24356;48.460;11.450;2022-09-09T04:22:04;3.95;;;1.65;;
38591;SDS011;24356;48.460;11.450;2022-09-09T04:32:59;2.15;;;1.70;;
38591;SDS011;24356;48.460;11.450;2022-09-09T04:36:17;1.60;;;1.50;;
38591;SDS011;24356;48.460;11.450;2022-09-09T04:39:40;5.60;;;1.70;;
38591;SDS011;24356;48.460;11.450;2022-09-09T04:46:20;3.47;;;1.70;;
38591;SDS011;24356;48.460;11.450;2022-09-09T04:49:37;3.45;;;1.70;;
38591;SDS011;24356;48.460;11.450;2022-09-09T04:53:19;1.70;;;1.42;;
38591;SDS011;24356;48.460;11.450;2022-09-09T04:56:19;3.13;;;1.90;;
38591;SDS011;24356;48.460;11.450;2022-09-09T05:03:12;7.25;;;1.92;;
38591;SDS011;24356;48.460;11.450;2022-09-09T05:06:25;3.97;;;1.70;;
38591;SDS011;24356;48.460;11.450;2022-09-09T05:09:11;2.22;;;1.88;;
38591;SDS011;24356;48.460;11.450;2022-09-09T05:12:30;2.35;;;1.63;;
38591;SDS011;24356;48.460;11.450;2022-09-09T05:15:55;2.13;;;1.80;;
38591;SDS011;24356;48.460;11.450;2022-09-09T05:18:54;2.65;;;1.70;;
38591;SDS011;24356;48.460;11.450;2022-09-09T05:21:46;2.45;;;1.40;;
38591;SDS011;24356;48.460;11.450;2022-09-09T05:25:00;4.55;;;2.00;;
38591;SDS011;24356;48.460;11.450;2022-09-09T05:28:31;4.10;;;1.77;;
38591;SDS011;24356;48.460;11.450;2022-09-09T05:35:08;3.40;;;1.50;;
38591;SDS011;24356;48.460;11.450;2022-09-09T05:38:18;2.90;;;1.90;;
38591;SDS011;24356;48.460;11.450;2022-09-09T05:41:58;3.67;;;2.00;;
38591;SDS011;24356;48.460;11.450;2022-09-09T05:44:52;5.70;;;2.20;;
38591;SDS011;24356;48.460;11.450;2022-09-09T05:51:27;3.38;;;2.30;;
38591;SDS011;24356;48.460;11.450;2022-09-09T05:54:23;3.60;;;1.92;;
38591;SDS011;24356;48.460;11.450;2022-09-09T06:03:50;2.90;;;2.00;;
38591;SDS011;24356;48.460;11.450;2022-09-09T06:21:12;2.78;;;1.92;;
38591;SDS011;24356;48.460;11.450;2022-09-09T06:24:39;2.78;;;1.73;;
38591;SDS011;24356;48.460;11.450;2022-09-09T06:28:04;3.20;;;2.10;;
38591;SDS011;24356;48.460;11.450;2022-09-09T06:38:10;2.08;;;1.52;;
38591;SDS011;24356;48.460;11.450;2022-09-09T06:41:45;3.85;;;1.80;;
38591;SDS011;24356;48.460;11.450;2022-09-09T06:44:50;3.95;;;1.70;;
38591;SDS011;24356;48.460;11.450;2022-09-09T06:48:04;7.72;;;2.30;;
38591;SDS011;24356;48.460;11.450;2022-09-09T06:51:24;4.32;;;1.88;;
38591;SDS011;24356;48.460;11.450;2022-09-09T06:54:55;3.70;;;1.85;;
38591;SDS011;24356;48.460;11.450;2022-09-09T06:58:22;3.42;;;2.08;;
38591;SDS011;24356;48.460;11.450;2022-09-09T07:04:11;3.17;;;1.85;;
38591;SDS011;24356;48.460;11.450;2022-09-09T07:07:15;4.57;;;2.17;;
38591;SDS011;24356;48.460;11.450;2022-09-09T07:09:58;3.65;;;1.83;;
38591;SDS011;24356;48.460;11.450;2022-09-09T07:12:30;6.65;;;2.35;;
38591;SDS011;24356;48.460;11.450;2022-09-09T07:15:33;5.25;;;2.15;;
38591;SDS011;24356;48.460;11.450;2022-09-09T07:18:12;3.22;;;1.73;;
38591;SDS011;24356;48.460;11.450;2022-09-09T07:24:16;2.78;;;2.22;;
38591;SDS011;24356;48.460;11.450;2022-09-09T07:27:27;2.63;;;1.52;;
38591;SDS011;24356;48.460;11.450;2022-09-09T07:30:33;6.45;;;2.20;;
38591;SDS011;24356;48.460;11.450;2022-09-09T07:33:02;4.53;;;2.20;;
38591;SDS011;24356;48.460;11.450;2022-09-09T07:36:08;6.40;;;3.10;;
38591;SDS011;24356;48.460;11.450;2022-09-09T07:39:03;4.90;;;2.83;;
38591;SDS011;24356;48.460;11.450;2022-09-09T07:42:04;2.80;;;1.88;;
38591;SDS011;24356;48.460;11.450;2022-09-09T07:44:37;3.85;;;2.33;;
38591;SDS011;24356;48.460;11.450;2022-09-09T07:47:21;4.18;;;2.92;;
38591;SDS011;24356;48.460;11.450;2022-09-09T07:50:11;5.40;;;2.60;;
38591;SDS011;24356;48.460;11.450;2022-09-09T07:52:58;6.20;;;2.80;;
38591;SDS011;24356;48.460;11.450;2022-09-09T07:56:07;6.00;;;2.28;;
38591;SDS011;24356;48.460;11.450;2022-09-09T07:59:08;3.70;;;2.25;;
38591;SDS011;24356;48.460;11.450;2022-09-09T08:01:39;6.60;;;2.70;;
38591;SDS011;24356;48.460;11.450;2022-09-09T08:04:29;6.13;;;2.47;;
38591;SDS011;24356;48.460;11.450;2022-09-09T08:06:56;6.63;;;2.90;;
38591;SDS011;24356;48.460;11.450;2022-09-09T08:09:24;4.30;;;2.40;;
38591;SDS011;24356;48.460;11.450;2022-09-09T08:11:53;6.13;;;2.60;;
38591;SDS011;24356;48.460;11.450;2022-09-09T08:14:21;5.45;;;2.60;;
38591;SDS011;24356;48.460;11.450;2022-09-09T08:16:48;5.80;;;2.67;;
38591;SDS011;24356;48.460;11.450;2022-09-09T08:19:15;3.72;;;2.00;;
38591;SDS011;24356;48.460;11.450;2022-09-09T08:21:42;4.50;;;2.28;;
38591;SDS011;24356;48.460;11.450;2022-09-09T08:24:09;6.97;;;2.50;;
38591;SDS011;24356;48.460;11.450;2022-09-09T08:26:36;3.80;;;2.03;;
38591;SDS011;24356;48.460;11.450;2022-09-09T08:29:04;4.63;;;2.50;;
38591;SDS011;24356;48.460;11.450;2022-09-09T08:31:38;3.75;;;2.40;;
38591;SDS011;24356;48.460;11.450;2022-09-09T08:34:06;6.65;;;2.50;;
38591;SDS011;24356;48.460;11.450;2022-09-09T08:36:36;3.03;;;1.70;;
38591;SDS011;24356;48.460;11.450;2022-09-09T08:39:04;4.05;;;2.30;;
38591;SDS011;24356;48.460;11.450;2022-09-09T08:44:10;5.18;;;2.38;;
38591;SDS011;24356;48.460;11.450;2022-09-09T08:47:04;4.43;;;2.60;;
38591;SDS011;24356;48.460;11.450;2022-09-09T08:52:36;6.28;;;3.13;;
38591;SDS011;24356;48.460;11.450;2022-09-09T08:55:20;7.53;;;3.92;;
38591;SDS011;24356;48.460;11.450;2022-09-09T08:57:53;5.97;;;3.38;;
38591;SDS011;24356;48.460;11.450;2022-09-09T09:00:20;5.18;;;2.70;;
38591;SDS011;24356;48.460;11.450;2022-09-09T09:11:14;3.65;;;1.60;;
38591;SDS011;24356;48.460;11.450;2022-09-09T09:16:32;3.45;;;1.48;;
38591;SDS011;24356;48.460;11.450;2022-09-09T09:19:12;7.55;;;1.65;;
38591;SDS011;24356;48.460;11.450;2022-09-09T09:24:16;4.15;;;1.40;;
38591;SDS011;24356;48.460;11.450;2022-09-09T09:27:00;4.15;;;1.60;;
38591;SDS011;24356;48.460;11.450;2022-09-09T09:29:39;3.30;;;1.65;;
38591;SDS011;24356;48.460;11.450;2022-09-09T09:32:07;1.98;;;1.20;;
38591;SDS011;24356;48.460;11.450;2022-09-09T09:34:39;4.80;;;1.77;;
38591;SDS011;24356;48.460;11.450;2022-09-09T09:37:26;4.25;;;1.50;;
38591;SDS011;24356;48.460;11.450;2022-09-09T09:39:54;4.10;;;1.20;;
38591;SDS011;24356;48.460;11.450;2022-09-09T09:42:20;2.88;;;1.00;;
38591;SDS011;24356;48.460;11.450;2022-09-09T09:44:45;3.13;;;1.10;;
38591;SDS011;24356;48.460;11.450;2022-09-09T09:47:15;2.13;;;1.20;;
38591;SDS011;24356;48.460;11.450;2022-09-09T09:52:21;2.85;;;1.50;;
38591;SDS011;24356;48.460;11.450;2022-09-09T09:54:51;1.85;;;1.08;;
38591;SDS011;24356;48.460;11.450;2022-09-09T09:57:18;2.42;;;1.15;;
38591;SDS011;24356;48.460;11.450;2022-09-09T10:02:43;3.53;;;1.20;;
38591;SDS011;24356;48.460;11.450;2022-09-09T10:07:46;1.55;;;1.10;;
38591;SDS011;24356;48.460;11.450;2022-09-09T10:10:26;1.90;;;1.30;;
38591;SDS011;24356;48.460;11.450;2022-09-09T10:15:47;4.07;;;1.40;;
38591;SDS011;24356;48.460;11.450;2022-09-09T10:32:37;1.42;;;1.10;;
38591;SDS011;24356;48.460;11.450;2022-09-09T10:40:33;2.10;;;1.00;;
38591;SDS011;24356;48.460;11.450;2022-09-09T10:51:29;2.70;;;1.10;;
38591;SDS011;24356;48.460;11.450;2022-09-09T10:54:09;5.38;;;1.20;;
38591;SDS011;24356;48.460;11.450;2022-09-09T10:56:44;4.07;;;1.05;;
38591;SDS011;24356;48.460;11.450;2022-09-09T10:59:17;1.52;;;1.00;;
38591;SDS011;24356;48.460;11.450;2022-09-09T11:01:51;2.80;;;1.13;;
38591;SDS011;24356;48.460;11.450;2022-09-09T11:04:23;4.55;;;1.08;;
38591;SDS011;24356;48.460;11.450;2022-09-09T11:06:57;3.20;;;1.25;;
38591;SDS011;24356;48.460;11.450;2022-09-09T11:09:29;2.10;;;0.95;;
38591;SDS011;24356;48.460;11.450;2022-09-09T11:11:59;1.38;;;1.00;;
38591;SDS011;24356;48.460;11.450;2022-09-09T11:14:37;5.07;;;1.02;;
38591;SDS011;24356;48.460;11.450;2022-09-09T11:17:15;2.78;;;1.00;;
38591;SDS011;24356;48.460;11.450;2022-09-09T11:19:47;2.95;;;0.80;;
38591;SDS011;24356;48.460;11.450;2022-09-09T11:27:36;2.35;;;0.90;;
38591;SDS011;24356;48.460;11.450;2022-09-09T11:36:13;2.17;;;1.10;;
38591;SDS011;24356;48.460;11.450;2022-09-09T11:38:52;2.42;;;1.10;;
38591;SDS011;24356;48.460;11.450;2022-09-09T11:41:23;4.53;;;1.20;;
38591;SDS011;24356;48.460;11.450;2022-09-09T11:43:50;1.75;;;0.93;;
38591;SDS011;24356;48.460;11.450;2022-09-09T11:46:18;2.70;;;1.08;;
38591;SDS011;24356;48.460;11.450;2022-09-09T11:49:00;2.90;;;1.00;;
38591;SDS011;24356;48.460;11.450;2022-09-09T11:51:28;2.40;;;1.40;;
38591;SDS011;24356;48.460;11.450;2022-09-09T11:54:03;3.53;;;1.40;;
38591;SDS011;24356;48.460;11.450;2022-09-09T11:56:54;3.60;;;1.00;;
38591;SDS011;24356;48.460;11.450;2022-09-09T12:01:50;2.05;;;1.10;;
38591;SDS011;24356;48.460;11.450;2022-09-09T12:06:57;2.80;;;1.00;;
38591;SDS011;24356;48.460;11.450;2022-09-09T12:12:26;1.67;;;0.80;;
38591;SDS011;24356;48.460;11.450;2022-09-09T12:14:55;3.30;;;0.82;;
38591;SDS011;24356;48.460;11.450;2022-09-09T12:17:22;2.08;;;0.93;;
38591;SDS011;24356;48.460;11.450;2022-09-09T12:25:30;2.03;;;0.93;;
38591;SDS011;24356;48.460;11.450;2022-09-09T12:28:04;2.28;;;0.80;;
38591;SDS011;24356;48.460;11.450;2022-09-09T12:30:46;3.92;;;1.10;;
38591;SDS011;24356;48.460;11.450;2022-09-09T12:33:35;1.67;;;0.70;;
38591;SDS011;24356;48.460;11.450;2022-09-09T12:36:03;1.83;;;0.70;;
38591;SDS011;24356;48.460;11.450;2022-09-09T12:40:57;5.30;;;0.90;;
38591;SDS011;24356;48.460;11.450;2022-09-09T12:43:24;5.32;;;1.15;;
38591;SDS011;24356;48.460;11.450;2022-09-09T12:45:53;4.95;;;0.82;;
38591;SDS011;24356;48.460;11.450;2022-09-09T12:48:38;6.68;;;0.95;;
38591;SDS011;24356;48.460;11.450;2022-09-09T12:51:15;3.28;;;0.90;;
38591;SDS011;24356;48.460;11.450;2022-09-09T12:53:53;4.82;;;0.80;;
38591;SDS011;24356;48.460;11.450;2022-09-09T12:56:21;2.97;;;0.85;;
38591;SDS011;24356;48.460;11.450;2022-09-09T12:58:52;12.85;;;0.90;;
38591;SDS011;24356;48.460;11.450;2022-09-09T13:01:24;5.45;;;0.80;;
38591;SDS011;24356;48.460;11.450;2022-09-09T13:03:55;4.35;;;1.20;;
38591;SDS011;24356;48.460;11.450;2022-09-09T13:06:22;7.30;;;0.80;;
38591;SDS011;24356;48.460;11.450;2022-09-09T13:08:50;4.53;;;0.95;;
38591;SDS011;24356;48.460;11.450;2022-09-09T13:11:17;3.10;;;0.80;;
38591;SDS011;24356;48.460;11.450;2022-09-09T13:13:51;3.70;;;0.95;;
38591;SDS011;24356;48.460;11.450;2022-09-09T13:16:29;2.88;;;0.80;;
38591;SDS011;24356;48.460;11.450;2022-09-09T13:18:59;8.63;;;2.47;;
38591;SDS011;24356;48.460;11.450;2022-09-09T13:21:31;5.15;;;1.70;;
38591;SDS011;24356;48.460;11.450;2022-09-09T13:24:01;11.65;;;3.55;;
38591;SDS011;24356;48.460;11.450;2022-09-09T13:26:29;9.73;;;3.15;;
38591;SDS011;24356;48.460;11.450;2022-09-09T13:28:55;2.75;;;1.30;;
38591;SDS011;24356;48.460;11.450;2022-09-09T13:31:41;3.65;;;1.30;;
38591;SDS011;24356;48.460;11.450;2022-09-09T13:34:22;4.00;;;1.20;;
38591;SDS011;24356;48.460;11.450;2022-09-09T13:37:01;7.40;;;1.50;;
38591;SDS011;24356;48.460;11.450;2022-09-09T13:39:30;6.15;;;1.80;;
38591;SDS011;24356;48.460;11.450;2022-09-09T13:41:59;2.75;;;0.98;;
38591;SDS011;24356;48.460;11.450;2022-09-09T13:44:33;6.70;;;1.35;;
38591;SDS011;24356;48.460;11.450;2022-09-09T13:47:15;3.38;;;0.75;;
38591;SDS011;24356;48.460;11.450;2022-09-09T13:49:47;5.57;;;1.17;;
38591;SDS011;24356;48.460;11.450;2022-09-09T13:52:13;6.20;;;1.40;;
38591;SDS011;24356;48.460;11.450;2022-09-09T13:54:47;5.20;;;1.40;;
38591;SDS011;24356;48.460;11.450;2022-09-09T13:57:18;4.43;;;0.98;;
38591;SDS011;24356;48.460;11.450;2022-09-09T13:59:46;4.07;;;1.20;;
38591;SDS011;24356;48.460;11.450;2022-09-09T14:02:13;4.07;;;0.90;;
38591;SDS011;24356;48.460;11.450;2022-09-09T14:04:39;4.30;;;0.93;;
38591;SDS011;24356;48.460;11.450;2022-09-09T14:07:08;4.28;;;1.05;;
38591;SDS011;24356;48.460;11.450;2022-09-09T14:09:37;6.03;;;1.13;;
38591;SDS011;24356;48.460;11.450;2022-09-09T14:12:03;5.50;;;1.00;;
38591;SDS011;24356;48.460;11.450;2022-09-09T14:14:29;3.15;;;0.90;;
38591;SDS011;24356;48.460;11.450;2022-09-09T14:16:55;4.57;;;0.85;;
38591;SDS011;24356;48.460;11.450;2022-09-09T14:19:20;3.70;;;0.80;;
38591;SDS011;24356;48.460;11.450;2022-09-09T14:21:46;3.80;;;0.95;;
38591;SDS011;24356;48.460;11.450;2022-09-09T14:24:12;1.92;;;0.80;;
38591;SDS011;24356;48.460;11.450;2022-09-09T14:26:37;4.18;;;0.80;;
38591;SDS011;24356;48.460;11.450;2022-09-09T14:29:03;4.93;;;1.38;;
38591;SDS011;24356;48.460;11.450;2022-09-09T14:31:29;4.07;;;0.80;;
38591;SDS011;24356;48.460;11.450;2022-09-09T14:33:54;1.88;;;0.60;;
38591;SDS011;24356;48.460;11.450;2022-09-09T14:36:20;1.10;;;0.60;;
38591;SDS011;24356;48.460;11.450;2022-09-09T14:38:46;5.63;;;0.80;;
38591;SDS011;24356;48.460;11.450;2022-09-09T14:41:13;1.58;;;0.60;;
38591;SDS011;24356;48.460;11.450;2022-09-09T14:43:43;5.53;;;0.90;;
38591;SDS011;24356;48.460;11.450;2022-09-09T14:46:10;6.15;;;0.90;;
38591;SDS011;24356;48.460;11.450;2022-09-09T14:48:39;2.45;;;0.80;;
38591;SDS011;24356;48.460;11.450;2022-09-09T14:51:07;3.65;;;0.80;;
38591;SDS011;24356;48.460;11.450;2022-09-09T14:53:38;4.22;;;0.88;;
38591;SDS011;24356;48.460;11.450;2022-09-09T14:56:08;2.33;;;0.50;;
38591;SDS011;24356;48.460;11.450;2022-09-09T14:58:35;3.70;;;0.93;;
38591;SDS011;24356;48.460;11.450;2022-09-09T15:01:06;3.60;;;0.98;;
38591;SDS011;24356;48.460;11.450;2022-09-09T15:03:37;4.15;;;0.88;;
38591;SDS011;24356;48.460;11.450;2022-09-09T15:06:07;2.17;;;0.60;;
38591;SDS011;24356;48.460;11.450;2022-09-09T15:08:37;3.85;;;0.98;;
38591;SDS011;24356;48.460;11.450;2022-09-09T15:11:04;5.97;;;1.35;;
38591;SDS011;24356;48.460;11.450;2022-09-09T15:13:34;2.63;;;0.90;;
38591;SDS011;24356;48.460;11.450;2022-09-09T15:16:05;2.53;;;0.70;;
38591;SDS011;24356;48.460;11.450;2022-09-09T15:18:32;6.35;;;0.75;;
38591;SDS011;24356;48.460;11.450;2022-09-09T15:21:02;2.20;;;0.55;;
38591;SDS011;24356;48.460;11.450;2022-09-09T15:23:31;3.47;;;0.60;;
38591;SDS011;24356;48.460;11.450;2022-09-09T15:25:57;0.93;;;0.50;;
38591;SDS011;24356;48.460;11.450;2022-09-09T15:28:23;5.90;;;1.05;;
38591;SDS011;24356;48.460;11.450;2022-09-09T15:30:49;9.10;;;1.30;;
38591;SDS011;24356;48.460;11.450;2022-09-09T15:33:17;4.05;;;0.82;;
38591;SDS011;24356;48.460;11.450;2022-09-09T15:35:43;4.68;;;0.98;;
38591;SDS011;24356;48.460;11.450;2022-09-09T15:38:09;6.20;;;1.00;;
38591;SDS011;24356;48.460;11.450;2022-09-09T15:40:35;8.13;;;1.20;;
38591;SDS011;24356;48.460;11.450;2022-09-09T15:43:00;2.60;;;1.00;;
38591;SDS011;24356;48.460;11.450;2022-09-09T15:45:28;3.58;;;0.55;;
38591;SDS011;24356;48.460;11.450;2022-09-09T15:47:56;6.75;;;0.98;;
38591;SDS011;24356;48.460;11.450;2022-09-09T15:50:21;2.15;;;0.80;;
38591;SDS011;24356;48.460;11.450;2022-09-09T15:52:47;1.23;;;0.57;;
38591;SDS011;24356;48.460;11.450;2022-09-09T15:55:13;2.40;;;0.70;;
38591;SDS011;24356;48.460;11.450;2022-09-09T15:57:39;2.88;;;0.80;;
38591;SDS011;24356;48.460;11.450;2022-09-09T16:00:05;1.60;;;0.60;;
38591;SDS011;24356;48.460;11.450;2022-09-09T16:02:32;3.40;;;0.50;;
38591;SDS011;24356;48.460;11.450;2022-09-09T16:04:58;4.20;;;0.77;;
38591;SDS011;24356;48.460;11.450;2022-09-09T16:07:23;2.25;;;0.60;;
38591;SDS011;24356;48.460;11.450;2022-09-09T16:09:49;3.40;;;0.70;;
38591;SDS011;24356;48.460;11.450;2022-09-09T16:12:17;0.90;;;0.60;;
38591;SDS011;24356;48.460;11.450;2022-09-09T16:14:43;4.05;;;0.52;;
38591;SDS011;24356;48.460;11.450;2022-09-09T16:17:10;2.65;;;0.43;;
38591;SDS011;24356;48.460;11.450;2022-09-09T16:19:36;1.13;;;0.55;;
38591;SDS011;24356;48.460;11.450;2022-09-09T16:22:02;4.47;;;0.80;;
38591;SDS011;24356;48.460;11.450;2022-09-09T16:24:29;1.77;;;0.60;;
38591;SDS011;24356;48.460;11.450;2022-09-09T16:26:55;0.93;;;0.47;;
38591;SDS011;24356;48.460;11.450;2022-09-09T16:29:21;1.20;;;0.63;;
38591;SDS011;24356;48.460;11.450;2022-09-09T16:31:47;2.30;;;0.60;;
38591;SDS011;24356;48.460;11.450;2022-09-09T16:34:14;2.20;;;0.50;;
38591;SDS011;24356;48.460;11.450;2022-09-09T16:36:42;1.55;;;0.70;;
38591;SDS011;24356;48.460;11.450;2022-09-09T16:39:09;3.13;;;0.80;;
38591;SDS011;24356;48.460;11.450;2022-09-09T16:41:38;2.38;;;0.65;;
38591;SDS011;24356;48.460;11.450;2022-09-09T16:44:06;3.78;;;0.55;;
38591;SDS011;24356;48.460;11.450;2022-09-09T16:46:35;2.38;;;0.65;;
38591;SDS011;24356;48.460;11.450;2022-09-09T16:49:06;0.70;;;0.52;;
38591;SDS011;24356;48.460;11.450;2022-09-09T16:51:35;1.98;;;0.57;;
38591;SDS011;24356;48.460;11.450;2022-09-09T16:54:07;1.85;;;0.77;;
38591;SDS011;24356;48.460;11.450;2022-09-09T16:56:34;1.88;;;0.57;;
38591;SDS011;24356;48.460;11.450;2022-09-09T16:59:03;1.85;;;0.77;;
38591;SDS011;24356;48.460;11.450;2022-09-09T17:01:34;3.13;;;1.00;;
38591;SDS011;24356;48.460;11.450;2022-09-09T17:04:06;1.35;;;0.75;;
38591;SDS011;24356;48.460;11.450;2022-09-09T17:06:33;2.95;;;0.70;;
38591;SDS011;24356;48.460;11.450;2022-09-09T17:09:00;5.78;;;1.27;;
38591;SDS011;24356;48.460;11.450;2022-09-09T17:11:27;1.88;;;0.75;;
38591;SDS011;24356;48.460;11.450;2022-09-09T17:13:54;3.80;;;1.40;;
38591;SDS011;24356;48.460;11.450;2022-09-09T17:16:22;2.67;;;1.20;;
38591;SDS011;24356;48.460;11.450;2022-09-09T17:18:51;3.63;;;1.30;;
38591;SDS011;24356;48.460;11.450;2022-09-09T17:21:19;1.40;;;0.80;;
38591;SDS011;24356;48.460;11.450;2022-09-09T17:23:46;3.22;;;1.45;;
38591;SDS011;24356;48.460;11.450;2022-09-09T17:26:14;2.63;;;0.80;;
38591;SDS011;24356;48.460;11.450;2022-09-09T17:28:42;1.10;;;0.70;;
38591;SDS011;24356;48.460;11.450;2022-09-09T17:31:08;2.40;;;1.20;;
38591;SDS011;24356;48.460;11.450;2022-09-09T17:33:37;3.03;;;0.88;;
38591;SDS011;24356;48.460;11.450;2022-09-09T17:36:08;1.55;;;0.75;;
38591;SDS011;24356;48.460;11.450;2022-09-09T17:38:37;2.40;;;1.00;;
38591;SDS011;24356;48.460;11.450;2022-09-09T17:41:04;1.00;;;0.73;;
38591;SDS011;24356;48.460;11.450;2022-09-09T17:43:34;3.03;;;0.70;;
38591;SDS011;24356;48.460;11.450;2022-09-09T17:48:41;2.83;;;1.00;;
38591;SDS011;24356;48.460;11.450;2022-09-09T17:51:09;1.92;;;0.95;;
38591;SDS011;24356;48.460;11.450;2022-09-09T17:53:40;3.30;;;1.17;;
38591;SDS011;24356;48.460;11.450;2022-09-09T17:56:08;3.42;;;1.10;;
38591;SDS011;24356;48.460;11.450;2022-09-09T17:58:36;1.15;;;0.90;;
38591;SDS011;24356;48.460;11.450;2022-09-09T18:01:09;3.53;;;0.70;;
38591;SDS011;24356;48.460;11.450;2022-09-09T18:03:38;1.60;;;0.80;;
38591;SDS011;24356;48.460;11.450;2022-09-09T18:06:05;2.13;;;0.60;;
38591;SDS011;24356;48.460;11.450;2022-09-09T18:08:33;2.00;;;0.70;;
38591;SDS011;24356;48.460;11.450;2022-09-09T18:10:59;2.35;;;0.70;;
38591;SDS011;24356;48.460;11.450;2022-09-09T18:13:26;2.25;;;0.73;;
38591;SDS011;24356;48.460;11.450;2022-09-09T18:15:52;3.85;;;0.80;;
38591;SDS011;24356;48.460;11.450;2022-09-09T18:18:19;1.40;;;0.60;;
38591;SDS011;24356;48.460;11.450;2022-09-09T18:20:45;2.20;;;0.98;;
38591;SDS011;24356;48.460;11.450;2022-09-09T18:23:20;2.42;;;0.98;;
38591;SDS011;24356;48.460;11.450;2022-09-09T18:25:46;2.05;;;0.55;;
38591;SDS011;24356;48.460;11.450;2022-09-09T18:28:11;5.88;;;1.08;;
38591;SDS011;24356;48.460;11.450;2022-09-09T18:30:38;6.40;;;1.52;;
38591;SDS011;24356;48.460;11.450;2022-09-09T18:33:04;8.05;;;1.30;;
38591;SDS011;24356;48.460;11.450;2022-09-09T18:35:30;4.25;;;1.05;;
38591;SDS011;24356;48.460;11.450;2022-09-09T18:37:55;11.60;;;1.73;;
38591;SDS011;24356;48.460;11.450;2022-09-09T18:40:21;6.15;;;1.42;;
38591;SDS011;24356;48.460;11.450;2022-09-09T18:42:47;7.97;;;1.30;;
38591;SDS011;24356;48.460;11.450;2022-09-09T18:45:13;4.70;;;1.25;;
38591;SDS011;24356;48.460;11.450;2022-09-09T18:47:39;4.32;;;1.30;;
38591;SDS011;24356;48.460;11.450;2022-09-09T18:50:06;6.00;;;1.40;;
38591;SDS011;24356;48.460;11.450;2022-09-09T18:52:32;7.90;;;1.48;;